WARR/SUB METAR and TAF weather

Enter ICAO airport designator
Station Type Date Time Source
WARR METAR 2020/01/12 14:00 UTC NOAA

WARR 121400Z 25005KT 230V290 7000 FEW020 27/25 Q1010 NOSIG


Station Type Date Time Source
WARR Decoded METAR 2020/01/12 14:00 UTC NOAA

Station name not available
Jan 12, 2020 - 09:00 AM EST / 2020.01.12 1400 UTC
Wind: from the WSW (250 degrees) at 6 MPH (5 KT) (direction variable):0
Visibility: 4 mile(s):0
Sky conditions: mostly clear
Temperature: 80 F (27 C)
Dew Point: 77 F (25 C)
Relative Humidity: 88%
Pressure (altimeter): 29.83 in. Hg (1010 hPa)
ob: WARR 121400Z 25005KT 230V290 7000 FEW020 27/25 Q1010 NOSIG
cycle: 14

Station Type Date Time Source
WARR TAF 2020/04/03 06:06 UTC NOAA

TAF WARR 030500Z 0306/0406 10010KT 9999 SCT020
TEMPO 0306/0308 29015KT 5000 TSRA SCT018CB
BECMG 0314/0316 26005KT 7000 FEW020 PROB40
TEMPO 0316/0320 5000 TSRA SCT020CB
TEMPO 0320/0400 4000 HZ
BECMG 0400/0402 11010KT 9999 NSW

Example: see airport list